Terminal Aerodrome Forecast
Issued by NWS Quad Cities IA IL

Home | Current Version | Previous Version | Text Only | Print | Product List | Glossary On
Versions: 1 2 3 4 5 6 7 8 9 10 11 12 13 14 15 16 17 18 19 20 21 22 23 24
982
FTUS43 KDVN 111128
TAFMLI
TAF
KMLI 111128Z 1112/1212 01005KT P6SM SCT200
     FM112200 20005KT P6SM BKN100
     FM120500 24006KT 4SM -SN BR OVC018
     FM121000 28010KT P6SM -SHSN OVC025=

USA.gov is the U.S. government's official web portal to all federal, state and local government web resources and services.